Young America, MN (55558)

9:08 PM CST on December 26, 2014 (GMT -0600)
Coldwater Crossing | Change Station
CLOSE
Current Station
Personal Weather Station
Location: Mayer, MN
Elevation: 961 ft
Nearby Weather Stations
Active Advisory: Winter Weather Advisory

Elev 961 ft 44.89 °N, 93.89 °W | Updated 3 minutes ago

Snow
Snow
26.8 °F
Feels Like 27 °F
N
3.0
Wind Variable Wind from NW
Gusts 7.0 mph

Today
High -- | Low -- °F
--% Chance of Precip.
Yesterday
High -- | Low -- °F
Precip. -- in
7:52 AM 4:40 PM
Waxing Crescent, 32% visible
Pressure 30.07 in
Visibility 1.2 miles
Clouds Overcast 500 ft
Windchill 27 °F
Dew Point 25 °F
Humidity 92%
Rainfall 0.00 in
Snow Depth Not available.
UV 0 out of 12
Pollen .10 out of 12
Air Quality Not available.
Flu Activity Not available.
METAR KGYL 270254Z AUTO 35009KT 1 1/4SM -SN OVC005 M02/M02 A3007 RMK AO2 P0001 60001 T10211025

More Conditions Fewer Conditions

Pressure 30.07 in
Visibility 1.2 miles
Clouds Overcast 500 ft
Windchill 27 °F
Dew Point 25 °F
Humidity 92%
Rainfall 0.00 in
Snow Depth Not available.
UV 0 out of 12
Pollen .10 out of 12
Air Quality Not available.
Flu Activity Not available.
METAR KGYL 270254Z AUTO 35009KT 1 1/4SM -SN OVC005 M02/M02 A3007 RMK AO2 P0001 60001 T10211025

More Conditions Fewer Conditions

10-Day Weather Forecast

Almanac

Astronomy

Dec. 26, 2014 Rise Set
Actual Time
Civil Twilight
Nautical Twilight
Astronomical Twilight
Moon
Length of Visible Light
Length of Day
Tomorrow will be .
, % of the Moon is Illuminated

Today's Extremes

State Highs State Lows

Community

WunderPhotos

Upload Photos

1,780,830 photos uploaded!

WunderBlogs® & News

Nearby

Air Quality

  Air Quality AQ Index Pollutant
Not available.

Snow Depth

Station Depth Elevation

Earthquake Activity

City Distance Mag. Time & Date
Minimum magnitude displayed is 2.5.

Coastal Water Temperatures

Place Temperature

Nearby Weather Stations